.
WxDataArchive / Data Records for 2009-07-21
2009-07-20 July 2009 2009-07-22

Data Records for Tuesday, 21 July 2009

Time	Temp	Chill	HIndex	Humid	Dewpt	 Wind 	HiWind	WindDir	Rain 	Barom 
-----	----	-----	------	-----	-----	------	------	-------	-----	----- 
00:00	62.4	62.4	62.4	87	58.5	0	2	112	0.00	30.117 
00:05	62.6	62.6	62.6	85	58.0	0	2	112	0.00	30.117 
00:10	62.7	62.7	62.7	84	57.8	0	1	112	0.00	30.117 
00:15	63.1	63.1	63.1	83	57.8	0	1	112	0.00	30.115 
00:20	63.2	63.2	63.2	83	57.9	0	2	112	0.00	30.115 
00:25	63.2	63.2	63.2	83	57.9	0	1	112	0.00	30.115 
00:30	63.2	63.2	63.2	83	57.9	0	0	---	0.00	30.114 
00:35	63.1	63.1	63.1	83	57.8	0	1	112	0.00	30.114 
00:40	63.1	63.1	63.1	83	57.8	0	1	112	0.00	30.114 
00:45	62.9	62.9	62.9	83	57.7	0	1	112	0.00	30.112 
00:50	62.7	62.7	62.7	84	57.8	0	1	112	0.00	30.112 
00:55	62.6	62.6	62.6	84	57.7	0	1	112	0.00	30.112 
01:00	62.4	62.4	62.4	84	57.5	0	0	---	0.00	30.110 
01:05	62.1	62.1	62.1	84	57.2	0	0	---	0.00	30.110 
01:10	61.8	61.8	61.8	84	56.9	0	0	---	0.00	30.110 
01:15	61.6	61.6	61.6	84	56.7	0	0	---	0.00	30.109 
01:20	61.3	61.3	61.3	85	56.7	0	1	112	0.00	30.109 
01:25	61.2	61.2	61.2	86	57.0	0	0	---	0.00	30.109 
01:30	61.0	61.0	61.0	86	56.8	0	0	---	0.00	30.108 
01:35	60.9	60.9	60.9	87	57.0	0	0	---	0.00	30.108 
01:40	60.7	60.7	60.7	87	56.8	0	0	---	0.00	30.108 
01:45	60.5	60.5	60.5	88	56.9	0	0	---	0.00	30.110 
01:50	60.2	60.2	60.2	88	56.6	0	0	---	0.00	30.110 
01:55	60.1	60.1	60.1	88	56.5	0	0	---	0.00	30.110 
02:00	59.9	59.9	59.9	89	56.6	0	0	---	0.00	30.106 
02:05	59.6	59.6	59.6	89	56.4	0	0	---	0.00	30.106 
02:10	59.6	59.6	59.6	89	56.4	0	0	---	0.00	30.106 
02:15	59.5	59.5	59.5	90	56.6	0	0	---	0.00	30.100 
02:20	59.3	59.3	59.3	90	56.4	0	0	---	0.00	30.100 
02:25	59.2	59.2	59.2	90	56.3	0	0	---	0.00	30.100 
02:30	59.0	59.0	59.0	91	56.4	0	0	---	0.00	30.098 
02:35	58.9	58.9	58.9	91	56.3	0	0	---	0.00	30.098 
02:40	58.9	58.9	58.9	91	56.3	0	0	---	0.00	30.098 
02:45	58.7	58.7	58.7	92	56.4	0	0	---	0.00	30.097 
02:50	58.7	58.7	58.7	92	56.4	0	0	---	0.00	30.097 
02:55	58.6	58.6	58.6	92	56.3	0	0	---	0.00	30.097 
03:00	58.4	58.4	58.4	92	56.1	0	0	---	0.00	30.096 
03:05	58.4	58.4	58.4	92	56.1	0	0	---	0.00	30.096 
03:10	58.3	58.3	58.3	92	56.0	0	0	---	0.00	30.096 
03:15	58.3	58.3	58.3	92	56.0	0	0	---	0.00	30.097 
03:20	58.3	58.3	58.3	93	56.3	0	0	---	0.00	30.097 
03:25	58.3	58.3	58.3	93	56.3	0	0	---	0.00	30.097 
03:30	58.4	58.4	58.4	93	56.4	0	0	---	0.00	30.101 
03:35	58.4	58.4	58.4	93	56.4	0	0	---	0.00	30.101 
03:40	58.4	58.4	58.4	93	56.4	0	0	---	0.00	30.101 
03:45	58.4	58.4	58.4	93	56.4	0	0	---	0.00	30.101 
03:50	58.4	58.4	58.4	93	56.4	0	0	---	0.00	30.101 
03:55	58.4	58.4	58.4	93	56.4	0	0	---	0.00	30.101 
04:00	58.4	58.4	58.4	93	56.4	0	0	---	0.00	30.101 
04:05	58.4	58.4	58.4	93	56.4	0	0	---	0.00	30.101 
04:10	58.4	58.4	58.4	93	56.4	0	0	---	0.00	30.101 
04:15	58.4	58.4	58.4	93	56.4	0	0	---	0.00	30.100 
04:20	58.4	58.4	58.4	93	56.4	0	0	---	0.00	30.100 
04:25	58.4	58.4	58.4	93	56.4	0	0	---	0.00	30.100 
04:30	58.4	58.4	58.4	93	56.4	0	0	---	0.00	30.099 
04:35	58.3	58.3	58.3	93	56.3	0	0	---	0.00	30.099 
04:40	58.3	58.3	58.3	94	56.6	0	0	---	0.00	30.099 
04:45	58.3	58.3	58.3	94	56.6	0	0	---	0.00	30.101 
04:50	58.3	58.3	58.3	94	56.6	0	0	---	0.00	30.101 
04:55	58.3	58.3	58.3	94	56.6	0	0	---	0.00	30.101 
05:00	58.1	58.1	58.1	94	56.4	0	0	---	0.00	30.102 
05:05	58.1	58.1	58.1	94	56.4	0	0	---	0.00	30.102 
05:10	58.3	58.3	58.3	94	56.6	0	0	---	0.00	30.102 
05:15	58.3	58.3	58.3	94	56.6	0	0	---	0.00	30.101 
05:20	58.3	58.3	58.3	94	56.6	0	0	---	0.00	30.101 
05:25	58.3	58.3	58.3	94	56.6	0	0	---	0.00	30.101 
05:30	58.3	58.3	58.3	94	56.6	0	0	---	0.00	30.100 
05:35	58.3	58.3	58.3	94	56.6	0	0	---	0.00	30.100 
05:40	58.3	58.3	58.3	94	56.6	0	0	---	0.00	30.100 
05:45	58.4	58.4	58.4	94	56.7	0	1	112	0.00	30.099 
05:50	58.6	58.6	58.6	94	56.9	0	1	112	0.00	30.099 
05:55	58.7	58.7	58.7	94	57.0	0	0	---	0.00	30.099 
06:00	58.7	58.7	58.7	93	56.7	0	0	---	0.00	30.096 
06:05	58.9	58.9	58.9	93	56.9	0	0	---	0.00	30.096 
06:10	58.9	58.9	58.9	93	56.9	0	1	112	0.00	30.096 
06:15	58.9	58.9	58.9	92	56.6	0	1	112	0.00	30.099 
06:20	58.9	58.9	58.9	92	56.6	0	0	---	0.00	30.099 
06:25	58.7	58.7	58.7	92	56.4	0	0	---	0.00	30.099 
06:30	58.7	58.7	58.7	92	56.4	0	0	---	0.00	30.100 
06:35	58.6	58.6	58.6	92	56.3	0	0	---	0.00	30.100 
06:40	58.4	58.4	58.4	92	56.1	0	0	---	0.00	30.100 
06:45	58.3	58.3	58.3	92	56.0	0	0	---	0.00	30.093 
06:50	58.3	58.3	58.3	92	56.0	0	0	---	0.00	30.093 
06:55	58.3	58.3	58.3	93	56.3	0	1	112	0.00	30.093 
07:00	58.4	58.4	58.4	93	56.4	0	1	112	0.00	30.093 
07:05	58.6	58.6	58.6	93	56.6	0	1	112	0.00	30.093 
07:10	58.6	58.6	58.6	93	56.6	0	0	---	0.00	30.093 
07:15	58.7	58.7	58.7	93	56.7	0	0	---	0.00	30.094 
07:20	58.9	58.9	58.9	93	56.9	0	2	112	0.00	30.094 
07:25	59.0	59.0	59.0	93	57.0	0	2	112	0.00	30.094 
07:30	59.3	59.3	59.3	92	57.0	1	2	112	0.00	30.093 
07:35	59.5	59.5	59.5	92	57.2	0	2	112	0.00	30.093 
07:40	59.5	59.5	59.5	92	57.2	0	1	112	0.00	30.093 
07:45	59.8	59.8	59.8	92	57.5	0	3	112	0.00	30.093 
07:50	60.1	60.1	60.1	91	57.5	0	2	112	0.00	30.093 
07:55	60.7	60.7	60.7	91	58.1	1	3	112	0.00	30.093 
08:00	61.3	61.3	61.3	90	58.3	0	1	112	0.00	30.096 
08:05	61.8	61.8	61.8	89	58.5	0	2	112	0.00	30.096 
08:10	62.4	62.4	62.4	87	58.5	1	2	112	0.00	30.096 
08:15	62.9	62.9	62.9	86	58.6	0	2	112	0.00	30.095 
08:20	63.4	63.4	63.4	85	58.8	0	1	112	0.00	30.095 
08:25	63.9	63.9	63.9	84	59.0	1	2	112	0.00	30.095 
08:30	64.2	64.2	64.2	84	59.3	0	2	112	0.00	30.104 
08:35	64.8	64.8	64.8	83	59.5	0	1	112	0.00	30.104 
08:40	65.5	65.5	65.5	82	59.9	0	0	---	0.00	30.104 
08:45	66.1	66.1	66.1	81	60.1	0	0	---	0.00	30.104 
08:50	66.4	66.4	66.4	80	60.0	1	2	112	0.00	30.104 
08:55	66.6	66.6	66.6	80	60.2	1	3	112	0.00	30.104 
09:00	67.1	67.1	67.1	80	60.7	0	1	112	0.00	30.102 
09:05	67.6	67.6	67.6	78	60.5	0	2	112	0.00	30.102 
09:10	68.1	68.1	68.1	76	60.2	0	2	112	0.00	30.102 
09:15	68.9	68.9	68.9	76	61.0	0	2	112	0.00	30.106 
09:20	69.6	69.6	69.6	73	60.6	0	3	112	0.00	30.106 
09:25	70.1	70.1	70.1	72	60.6	1	3	112	0.00	30.106 
09:30	69.9	69.9	69.9	73	60.8	1	3	112	0.00	30.102 
09:35	69.8	69.8	69.8	73	60.7	1	4	112	0.00	30.102 
09:40	69.8	69.8	69.8	73	60.7	1	3	90	0.00	30.102 
09:45	70.1	70.1	70.1	73	61.0	1	3	112	0.00	30.099 
09:50	70.3	70.3	70.3	70	60.0	1	4	112	0.00	30.099 
09:55	70.6	70.6	70.6	71	60.7	1	4	112	0.00	30.099 
10:00	70.6	70.6	70.6	70	60.3	1	4	90	0.00	30.097 
10:05	70.9	70.9	70.9	69	60.2	2	4	90	0.00	30.097 
10:10	71.1	71.1	71.1	70	60.8	1	3	90	0.00	30.097 
10:15	71.6	71.6	71.6	68	60.5	0	2	112	0.00	30.093 
10:20	72.3	72.3	72.3	66	60.3	1	2	112	0.00	30.093 
10:25	73.0	73.0	73.0	66	61.0	1	2	135	0.00	30.093 
10:30	73.5	73.5	73.5	65	61.0	0	3	135	0.00	30.090 
10:35	73.9	73.9	73.9	65	61.4	1	3	135	0.00	30.090 
10:40	74.0	74.0	74.0	65	61.5	0	2	135	0.00	30.090 
10:45	74.2	74.2	74.2	62	60.3	0	2	135	0.00	30.085 
10:50	74.6	74.6	74.6	62	60.7	1	3	248	0.00	30.085 
10:55	74.6	74.6	74.6	62	60.7	1	3	112	0.00	30.085 
11:00	74.4	74.4	74.4	60	59.6	1	4	90	0.00	30.081 
11:05	74.4	74.4	74.4	61	60.1	1	3	90	0.00	30.081 
11:10	74.9	74.9	74.9	61	60.5	0	3	90	0.00	30.081 
11:15	75.4	75.4	77.6	59	60.1	1	3	90	0.00	30.080 
11:20	76.0	76.0	78.0	58	60.1	1	3	112	0.00	30.080 
11:25	76.0	76.0	78.0	59	60.6	1	4	112	0.00	30.080 
11:30	75.8	75.8	77.8	61	61.4	2	4	90	0.00	30.076 
11:35	75.8	75.8	77.9	59	60.4	1	6	68	0.00	30.076 
11:40	76.1	76.1	78.1	58	60.2	2	5	90	0.00	30.076 
11:45	76.1	76.1	78.1	59	60.7	2	4	90	0.00	30.081 
11:50	75.8	75.8	77.9	60	60.9	3	6	90	0.00	30.081 
11:55	75.8	75.8	77.8	61	61.4	2	6	68	0.00	30.081 
12:00	76.1	76.1	78.1	61	61.7	2	4	90	0.00	30.076 
12:05	76.7	76.7	78.5	60	61.7	1	4	90	0.00	30.076 
12:10	76.7	76.7	78.5	59	61.3	2	9	90	0.00	30.076 
12:15	77.0	77.0	78.8	62	63.0	2	7	90	0.00	30.066 
12:20	77.2	77.2	78.9	57	60.8	2	5	135	0.00	30.066 
12:25	77.6	77.6	79.2	56	60.6	1	5	180	0.00	30.066 
12:30	77.4	77.4	79.0	56	60.5	2	9	90	0.00	30.066 
12:35	76.8	76.8	78.6	56	59.9	2	5	90	0.00	30.066 
12:40	76.5	76.5	78.4	56	59.6	3	6	90	0.00	30.066 
12:45	76.5	76.5	78.4	55	59.1	2	6	90	0.00	30.067 
12:50	76.8	76.8	78.6	54	58.9	2	4	112	0.00	30.067 
12:55	77.6	77.6	79.0	50	57.5	1	4	180	0.00	30.067 
13:00	77.9	77.9	79.3	52	58.8	3	6	112	0.00	30.065 
13:05	77.7	77.7	79.1	52	58.6	1	5	90	0.00	30.065 
13:10	77.9	77.9	79.3	52	58.8	1	4	112	0.00	30.065 
13:15	78.3	78.3	79.6	53	59.7	2	5	112	0.00	30.064 
13:20	78.3	78.3	79.6	52	59.2	2	6	90	0.00	30.064 
13:25	78.5	78.5	79.7	52	59.4	2	9	90	0.00	30.064 
13:30	78.6	78.6	79.9	54	60.5	2	6	112	0.00	30.061 
13:35	78.5	78.5	79.7	52	59.4	1	3	112	0.00	30.061 
13:40	78.3	78.3	79.7	55	60.8	1	3	112	0.00	30.061 
13:45	78.8	78.8	80.0	53	60.2	1	3	292	0.00	30.053 
13:50	78.6	78.6	79.7	50	58.4	1	4	112	0.00	30.053 
13:55	78.8	78.8	79.9	52	59.7	1	5	90	0.00	30.053 
14:00	79.0	79.0	80.2	53	60.4	3	6	90	0.00	30.050 
14:05	78.8	78.8	79.9	52	59.7	2	5	90	0.00	30.050 
14:10	78.8	78.8	79.9	51	59.1	2	5	90	0.00	30.050 
14:15	79.2	79.2	80.4	53	60.6	1	3	112	0.00	30.047 
14:20	79.8	79.8	80.5	48	58.3	1	4	112	0.00	30.047 
14:25	79.6	79.6	80.5	50	59.3	1	5	90	0.00	30.047 
14:30	79.8	79.8	80.7	51	60.0	1	4	90	0.00	30.043 
14:35	79.6	79.6	80.5	50	59.3	2	6	90	0.00	30.043 
14:40	79.4	79.4	80.2	49	58.5	2	5	90	0.00	30.043 
14:45	79.8	79.8	80.5	49	58.9	1	4	90	0.00	30.035 
14:50	79.8	79.8	80.5	49	58.9	2	7	112	0.00	30.035 
14:55	79.8	79.8	80.6	50	59.5	2	7	90	0.00	30.035 
15:00	79.9	79.9	80.7	50	59.6	2	5	90	0.00	30.034 
15:05	80.3	80.3	80.8	47	58.2	1	4	112	0.00	30.034 
15:10	80.7	80.7	81.2	48	59.2	1	3	90	0.00	30.034 
15:15	80.7	80.7	81.0	46	58.0	2	5	90	0.00	30.031 
15:20	80.5	80.5	81.0	48	59.0	1	3	90	0.00	30.031 
15:25	79.9	79.9	80.6	49	59.0	1	4	90	0.00	30.031 
15:30	79.8	79.8	80.7	51	60.0	0	2	112	0.00	30.026 
15:35	79.9	79.9	80.6	49	59.0	1	3	112	0.00	30.026 
15:40	80.1	80.1	80.5	46	57.4	2	5	112	0.00	30.026 
15:45	80.5	80.5	80.9	47	58.4	1	3	90	0.00	30.022 
15:50	80.9	80.9	81.2	46	58.2	1	4	90	0.00	30.022 
15:55	81.2	81.2	81.3	45	57.8	1	5	90	0.00	30.022 
16:00	81.1	81.1	81.6	48	59.5	2	5	90	0.00	30.020 
16:05	80.7	80.7	81.2	48	59.2	2	6	90	0.00	30.020 
16:10	80.5	80.5	81.3	50	60.1	2	5	90	0.00	30.020 
16:15	80.3	80.3	81.2	51	60.5	1	4	90	0.00	30.017 
16:20	80.9	80.9	81.2	46	58.2	1	3	90	0.00	30.017 
16:25	81.1	81.1	81.4	46	58.3	1	2	135	0.00	30.017 
16:30	81.1	81.1	81.6	48	59.5	2	5	112	0.00	30.010 
16:35	80.9	80.9	81.2	46	58.2	1	3	90	0.00	30.010 
16:40	81.1	81.1	81.6	48	59.5	2	6	90	0.00	30.010 
16:45	80.7	80.7	80.9	45	57.4	2	6	90	0.00	30.016 
16:50	79.6	79.6	80.3	48	58.2	1	5	90	0.00	30.016 
16:55	78.6	78.6	79.5	48	57.2	2	4	90	0.00	30.016 
17:00	78.3	78.3	79.4	50	58.1	1	2	135	0.00	30.016 
17:05	78.1	78.1	79.3	49	57.4	1	3	135	0.00	30.016 
17:10	78.1	78.1	79.3	50	57.9	0	2	135	0.00	30.016 
17:15	77.9	77.9	79.2	50	57.7	1	4	135	0.00	30.019 
17:20	77.7	77.7	79.1	51	58.1	0	4	68	0.00	30.019 
17:25	77.7	77.7	79.1	51	58.1	1	4	68	0.00	30.019 
17:30	77.7	77.7	79.1	52	58.6	0	2	68	0.00	30.019 
17:35	77.7	77.7	79.0	50	57.6	0	2	68	0.00	30.019 
17:40	77.7	77.7	79.1	51	58.1	0	2	68	0.00	30.019 
17:45	77.6	77.6	78.9	49	56.9	1	2	68	0.00	30.017 
17:50	77.6	77.6	78.9	49	56.9	1	3	68	0.00	30.017 
17:55	77.7	77.7	79.0	50	57.6	1	3	68	0.00	30.017 
18:00	78.1	78.1	79.3	49	57.4	1	3	68	0.00	30.011 
18:05	78.3	78.3	79.3	47	56.4	0	3	68	0.00	30.011 
18:10	78.5	78.5	79.4	47	56.6	0	1	68	0.00	30.011 
18:15	78.6	78.6	79.6	49	57.8	1	2	68	0.00	30.006 
18:20	78.6	78.6	79.5	47	56.7	0	2	68	0.00	30.006 
18:25	78.6	78.6	79.6	49	57.8	0	3	68	0.00	30.006 
18:30	78.6	78.6	79.5	48	57.2	0	1	68	0.00	30.005 
18:35	78.6	78.6	79.4	46	56.1	0	2	68	0.00	30.005 
18:40	78.6	78.6	79.5	47	56.7	0	1	68	0.00	30.005 
18:45	78.5	78.5	79.4	46	56.0	0	1	68	0.00	30.004 
18:50	78.5	78.5	79.4	46	56.0	0	1	68	0.00	30.004 
18:55	78.3	78.3	79.2	46	55.8	0	1	68	0.00	30.004 
19:00	78.3	78.3	79.3	47	56.4	0	0	---	0.00	30.001 
19:05	78.3	78.3	79.3	48	57.0	0	0	---	0.00	30.001 
19:10	78.3	78.3	79.3	48	57.0	0	0	---	0.00	30.001 
19:15	78.3	78.3	79.3	47	56.4	0	0	---	0.00	30.002 
19:20	78.3	78.3	79.4	50	58.1	0	1	68	0.00	30.002 
19:25	78.1	78.1	79.3	49	57.4	0	1	68	0.00	30.002 
19:30	78.1	78.1	79.3	50	57.9	0	1	68	0.00	29.996 
19:35	77.9	77.9	79.1	48	56.6	0	1	68	0.00	29.996 
19:40	77.7	77.7	79.0	50	57.6	0	2	68	0.00	29.996 
19:45	77.7	77.7	79.0	50	57.6	0	1	68	0.00	29.995 
19:50	77.6	77.6	79.0	50	57.5	0	1	68	0.00	29.995 
19:55	77.4	77.4	78.8	50	57.3	0	1	68	0.00	29.995 
20:00	77.2	77.2	78.7	51	57.6	0	1	68	0.00	29.995 
20:05	77.2	77.2	78.8	52	58.2	0	1	68	0.00	29.995 
20:10	77.0	77.0	78.7	52	58.0	0	0	---	0.00	29.995 
20:15	77.0	77.0	78.7	52	58.0	0	1	68	0.00	29.990 
20:20	76.8	76.8	78.5	53	58.4	0	1	68	0.00	29.990 
20:25	76.7	76.7	78.5	53	58.3	0	0	---	0.00	29.990 
20:30	76.5	76.5	78.4	54	58.6	0	1	68	0.00	29.989 
20:35	76.3	76.3	78.3	54	58.4	0	1	68	0.00	29.989 
20:40	76.1	76.1	78.1	54	58.2	0	1	68	0.00	29.989 
20:45	76.0	76.0	78.1	56	59.2	1	5	112	0.00	29.992 
20:50	75.6	75.6	77.8	59	60.2	1	4	112	0.00	29.992 
20:55	75.1	75.1	77.5	58	59.3	1	5	68	0.00	29.992 
21:00	74.7	74.7	74.7	58	58.9	1	4	68	0.00	29.989 
21:05	74.4	74.4	74.4	58	58.6	1	4	68	0.00	29.989 
21:10	74.2	74.2	74.2	58	58.5	0	1	68	0.00	29.989 
21:15	73.9	73.9	73.9	59	58.7	0	2	68	0.00	29.991 
21:20	73.7	73.7	73.7	59	58.5	0	1	68	0.00	29.991 
21:25	73.3	73.3	73.3	60	58.6	0	1	68	0.00	29.991 
21:30	73.2	73.2	73.2	60	58.5	0	1	68	0.00	29.992 
21:35	73.0	73.0	73.0	62	59.2	0	1	68	0.00	29.992 
21:40	72.7	72.7	72.7	62	58.9	0	0	---	0.00	29.992 
21:45	72.5	72.5	72.5	62	58.7	0	0	---	0.00	29.998 
21:50	72.1	72.1	72.1	62	58.3	0	0	---	0.00	29.998 
21:55	72.0	72.0	72.0	63	58.7	0	0	---	0.00	29.998 
22:00	71.6	71.6	71.6	65	59.2	0	0	---	0.00	30.001 
22:05	71.3	71.3	71.3	65	58.9	0	0	---	0.00	30.001 
22:10	70.9	70.9	70.9	66	59.0	0	0	---	0.00	30.001 
22:15	70.8	70.8	70.8	66	58.9	0	0	---	0.00	29.999 
22:20	70.4	70.4	70.4	67	58.9	0	0	---	0.00	29.999 
22:25	70.3	70.3	70.3	68	59.2	0	0	---	0.00	29.999 
22:30	70.1	70.1	70.1	68	59.0	0	0	---	0.00	30.003 
22:35	69.9	69.9	69.9	69	59.3	0	0	---	0.00	30.003 
22:40	69.8	69.8	69.8	69	59.2	0	0	---	0.00	30.003 
22:45	69.8	69.8	69.8	70	59.6	0	0	---	0.00	30.010 
22:50	69.8	69.8	69.8	69	59.2	1	3	68	0.00	30.010 
22:55	69.9	69.9	69.9	69	59.3	1	3	68	0.00	30.010 
23:00	69.9	69.9	69.9	68	58.8	1	4	68	0.00	30.013 
23:05	69.9	69.9	69.9	68	58.8	1	3	90	0.00	30.013 
23:10	69.9	69.9	69.9	68	58.8	0	2	90	0.00	30.013 
23:15	69.8	69.8	69.8	68	58.7	1	4	90	0.00	30.009 
23:20	69.6	69.6	69.6	69	59.0	1	3	112	0.00	30.009 
23:25	69.4	69.4	69.4	69	58.8	1	3	90	0.00	30.009 
23:30	69.3	69.3	69.3	70	59.1	0	2	90	0.00	30.012 
23:35	69.1	69.1	69.1	71	59.3	0	2	90	0.00	30.012 
23:40	69.1	69.1	69.1	71	59.3	0	2	90	0.00	30.012 
23:45	68.9	68.9	68.9	72	59.5	1	3	90	0.00	30.008 
23:50	68.8	68.8	68.8	73	59.8	1	3	90	0.00	30.008 
23:55	68.6	68.6	68.6	73	59.6	1	5	90	0.00	30.008 

CoCoRaHS
IN-AL-39
A2 Web Hosting
Creative Commons License
GoDaddy
search engine by freefind advanced

loaded 2018-11-17 12:17:03 • last modified 2010-11-18 10:43:29
Privacy PolicyDisclaimer
• wx.awcolley.com is powered by PmWiki v.2002016 •
• all content (unless otherwise noted) © 2018 A W Colley